createdAt,value
2022-12-04T00:02:19.090Z,39.78
2022-12-04T00:04:46.518Z,41.65
2022-12-04T00:07:13.768Z,40.92
2022-12-04T00:09:41.107Z,41.47
2022-12-04T00:12:08.463Z,42.17
2022-12-04T00:14:49.013Z,43.40
2022-12-04T00:17:23.040Z,37.40
2022-12-04T00:19:50.408Z,46.30
2022-12-04T00:22:17.602Z,38.67
2022-12-04T00:24:44.875Z,42.33
2022-12-04T00:27:12.182Z,44.75
2022-12-04T00:29:39.444Z,40.65
2022-12-04T00:32:06.869Z,41.28
2022-12-04T00:34:34.173Z,40.88
2022-12-04T00:37:01.442Z,41.90
2022-12-04T00:39:28.660Z,41.42
2022-12-04T00:41:55.939Z,42.63
2022-12-04T00:44:23.254Z,40.95
2022-12-04T00:46:50.549Z,41.60
2022-12-04T00:49:17.871Z,46.72
2022-12-04T00:51:45.167Z,46.05
2022-12-04T00:54:12.465Z,42.97
2022-12-04T00:56:40.138Z,48.10
2022-12-04T00:59:07.482Z,44.33
2022-12-04T01:01:34.950Z,41.50
2022-12-04T01:04:02.351Z,39.78
2022-12-04T01:06:31.443Z,41.75
2022-12-04T01:08:59.220Z,42.40
2022-12-04T01:11:27.019Z,50.78
2022-12-04T01:13:54.416Z,41.55
2022-12-04T01:16:40.480Z,43.30
2022-12-04T01:19:09.302Z,46.88
2022-12-04T01:21:39.650Z,39.45
2022-12-04T01:24:07.153Z,44.05
2022-12-04T01:26:34.515Z,42.97
2022-12-04T01:29:02.200Z,49.42
2022-12-04T01:31:29.555Z,41.83
2022-12-04T01:33:56.875Z,43.03
2022-12-04T01:36:25.614Z,39.38
2022-12-04T01:38:52.858Z,45.65
2022-12-04T01:41:23.111Z,47.63
2022-12-04T01:44:09.888Z,37.85
2022-12-04T01:46:38.270Z,44.90
2022-12-04T01:49:07.594Z,45.58
2022-12-04T01:51:36.545Z,45.25
2022-12-04T01:54:07.767Z,45.92
2022-12-04T01:56:47.731Z,41.03
2022-12-04T01:59:17.937Z,44.53
2022-12-04T02:01:50.267Z,39.88
2022-12-04T02:04:17.554Z,48.55
2022-12-04T02:06:44.774Z,44.63
2022-12-04T02:09:12.084Z,46.05
2022-12-04T02:11:49.848Z,44.72
2022-12-04T02:14:26.472Z,39.63
2022-12-04T02:16:53.817Z,42.53
2022-12-04T02:19:39.971Z,45.72
2022-12-04T02:22:15.460Z,42.75
2022-12-04T02:24:50.393Z,45.85
2022-12-04T02:27:17.722Z,41.45
2022-12-04T02:29:50.406Z,47.22
2022-12-04T02:32:20.840Z,47.13
2022-12-04T02:35:05.131Z,45.38
2022-12-04T02:37:50.076Z,45.22
2022-12-04T02:40:23.671Z,44.75
2022-12-04T02:42:54.806Z,41.63
2022-12-04T02:45:26.224Z,43.40
2022-12-04T02:47:54.327Z,42.17
2022-12-04T02:50:24.157Z,38.53
2022-12-04T02:52:56.329Z,45.45
2022-12-04T02:55:32.188Z,49.22
2022-12-04T02:58:03.649Z,41.28
2022-12-04T03:00:32.790Z,45.63
2022-12-04T03:03:02.594Z,44.20
2022-12-04T03:05:42.370Z,42.22
2022-12-04T03:08:12.343Z,44.45
2022-12-04T03:10:44.759Z,45.13
2022-12-04T03:13:23.162Z,46.45
2022-12-04T03:16:10.725Z,41.20
2022-12-04T03:18:41.356Z,49.53
2022-12-04T03:21:15.114Z,41.35
2022-12-04T03:23:47.225Z,40.60
2022-12-04T03:26:19.428Z,43.47
2022-12-04T03:29:06.949Z,46.03
2022-12-04T03:31:40.286Z,42.60
2022-12-04T03:34:08.346Z,45.35
2022-12-04T03:36:38.094Z,42.15
2022-12-04T03:39:14.707Z,45.00
2022-12-04T03:42:02.966Z,44.83
2022-12-04T03:44:46.420Z,48.47
2022-12-04T03:47:33.899Z,42.15
2022-12-04T03:50:03.696Z,39.25
2022-12-04T03:52:36.888Z,47.05
2022-12-04T03:55:22.043Z,47.97
2022-12-04T03:57:50.090Z,49.75
2022-12-04T04:00:18.349Z,46.45
2022-12-04T04:02:54.185Z,43.95
2022-12-04T04:05:21.883Z,44.65
2022-12-04T04:07:54.104Z,42.83
2022-12-04T04:10:22.887Z,41.58
2022-12-04T04:13:19.470Z,46.22
2022-12-04T04:16:08.393Z,50.78
2022-12-04T04:18:54.921Z,43.60
2022-12-04T04:21:43.102Z,38.03
2022-12-04T04:24:16.875Z,48.55
2022-12-04T04:26:46.252Z,45.97
2022-12-04T04:29:13.918Z,42.15
2022-12-04T04:31:56.377Z,45.65
2022-12-04T04:34:26.620Z,44.05
2022-12-04T04:37:14.106Z,47.83
2022-12-04T04:39:46.415Z,43.45
2022-12-04T04:42:33.923Z,42.47
2022-12-04T04:45:22.847Z,46.55
2022-12-04T04:47:50.088Z,46.78
2022-12-04T04:50:17.893Z,43.58
2022-12-04T04:52:50.493Z,44.42
2022-12-04T04:55:18.565Z,46.50
2022-12-04T04:57:45.855Z,49.83
2022-12-04T05:00:14.804Z,46.72
2022-12-04T05:02:42.395Z,54.70
2022-12-04T05:05:09.794Z,49.53
2022-12-04T05:07:37.300Z,40.58
2022-12-04T05:10:05.141Z,45.20
2022-12-04T05:12:32.579Z,46.95
2022-12-04T05:14:59.787Z,46.47
2022-12-04T05:17:27.190Z,47.22
2022-12-04T05:19:55.392Z,49.03
2022-12-04T05:22:41.158Z,38.67
2022-12-04T05:25:08.715Z,46.75
2022-12-04T05:27:35.946Z,42.42
2022-12-04T05:30:03.246Z,50.15
2022-12-04T05:32:30.970Z,42.85
2022-12-04T05:34:58.575Z,42.85
2022-12-04T05:37:26.497Z,47.78
2022-12-04T05:39:54.299Z,44.42
2022-12-04T05:42:21.935Z,44.15
2022-12-04T05:44:50.039Z,46.60
2022-12-04T05:47:17.425Z,44.17
2022-12-04T05:49:45.024Z,46.30
2022-12-04T05:52:12.497Z,43.75
2022-12-04T05:54:40.344Z,40.08
2022-12-04T05:57:08.055Z,43.67
2022-12-04T05:59:35.454Z,48.00
2022-12-04T06:02:02.794Z,45.42
2022-12-04T06:04:30.279Z,46.33
2022-12-04T06:06:57.672Z,40.28
2022-12-04T06:09:25.017Z,42.35
2022-12-04T06:11:52.245Z,46.92
2022-12-04T06:14:19.563Z,40.70
2022-12-04T06:16:47.504Z,44.90
2022-12-04T06:19:17.293Z,44.38
2022-12-04T06:21:45.853Z,42.60
2022-12-04T06:24:14.796Z,43.10
2022-12-04T06:27:03.923Z,41.85
2022-12-04T06:29:29.242Z,46.08
2022-12-04T06:31:56.531Z,43.35
2022-12-04T06:34:23.914Z,44.42
2022-12-04T06:36:51.175Z,44.35
2022-12-04T06:39:19.147Z,43.92
2022-12-04T06:41:47.700Z,46.53
2022-12-04T06:44:15.812Z,40.42
2022-12-04T06:46:46.843Z,43.75
2022-12-04T06:49:14.516Z,46.22
2022-12-04T06:51:42.000Z,42.85
2022-12-04T06:54:09.968Z,45.13
2022-12-04T06:56:37.578Z,43.45
2022-12-04T06:59:05.673Z,42.08
2022-12-04T07:01:34.036Z,36.35
2022-12-04T07:04:03.721Z,40.53
2022-12-04T07:09:02.541Z,42.83
2022-12-04T07:11:30.103Z,37.47
2022-12-04T07:13:57.455Z,44.38
2022-12-04T07:16:25.284Z,42.45
2022-12-04T07:18:56.547Z,44.20
2022-12-04T07:21:25.084Z,40.53
2022-12-04T07:23:53.210Z,46.53
2022-12-04T07:26:20.775Z,41.05
2022-12-04T07:28:48.697Z,43.83
2022-12-04T07:31:17.445Z,42.13
2022-12-04T07:33:45.116Z,45.03
2022-12-04T07:36:13.839Z,44.17
2022-12-04T07:38:41.307Z,41.20
2022-12-04T07:41:09.462Z,44.42
2022-12-04T07:43:36.816Z,40.75
2022-12-04T07:46:05.544Z,46.60
2022-12-04T07:48:33.573Z,46.10
2022-12-04T07:51:08.648Z,47.97
2022-12-04T07:53:36.442Z,44.40
2022-12-04T07:56:05.060Z,41.80
2022-12-04T07:58:32.518Z,45.25
2022-12-04T08:01:06.818Z,45.03
2022-12-04T08:03:34.284Z,42.92
2022-12-04T08:06:02.380Z,44.33
2022-12-04T08:08:29.838Z,48.13
2022-12-04T08:10:57.115Z,42.80
2022-12-04T08:13:24.586Z,43.40
2022-12-04T08:15:52.112Z,46.90
2022-12-04T08:18:19.540Z,41.90
2022-12-04T08:20:46.842Z,43.63
2022-12-04T08:23:14.107Z,42.63
2022-12-04T08:25:41.975Z,43.00
2022-12-04T08:28:09.202Z,43.17
2022-12-04T08:30:36.491Z,45.05
2022-12-04T08:33:03.792Z,43.83
2022-12-04T08:35:31.007Z,44.63
2022-12-04T08:37:58.455Z,46.83
2022-12-04T08:40:25.715Z,39.03
2022-12-04T08:42:52.888Z,40.92
2022-12-04T08:45:20.105Z,44.15
2022-12-04T08:47:52.196Z,38.63
2022-12-04T08:50:19.773Z,43.47
2022-12-04T08:52:47.008Z,44.47
2022-12-04T08:55:14.286Z,43.60
2022-12-04T08:57:41.569Z,39.65
2022-12-04T09:00:09.026Z,43.75
2022-12-04T09:02:36.922Z,45.47
2022-12-04T09:05:04.222Z,44.25
2022-12-04T09:07:31.496Z,43.42
2022-12-04T09:09:58.957Z,39.88
2022-12-04T09:12:26.343Z,40.13
2022-12-04T09:14:53.623Z,39.30
2022-12-04T09:17:20.893Z,45.83
2022-12-04T09:19:48.263Z,42.67
2022-12-04T09:22:15.544Z,40.85
2022-12-04T09:24:42.859Z,41.88
2022-12-04T09:27:14.779Z,41.42
2022-12-04T09:29:42.368Z,42.65
2022-12-04T09:32:09.615Z,41.80
2022-12-04T09:34:36.952Z,38.17
2022-12-04T09:37:04.186Z,37.53
2022-12-04T09:39:31.485Z,46.75
2022-12-04T09:42:01.808Z,36.45
2022-12-04T09:44:31.726Z,39.90
2022-12-04T09:46:58.980Z,38.55
2022-12-04T09:49:28.322Z,36.95
2022-12-04T09:51:57.931Z,37.58
2022-12-04T09:54:27.603Z,37.13
2022-12-04T09:59:30.419Z,36.10
2022-12-04T10:02:16.627Z,38.50
2022-12-04T10:04:43.936Z,38.30
2022-12-04T10:07:17.338Z,36.13
2022-12-04T10:09:49.628Z,37.15
2022-12-04T10:12:23.063Z,33.25
2022-12-04T10:14:50.344Z,35.85
2022-12-04T10:17:20.726Z,39.95
2022-12-04T10:19:57.657Z,36.20
2022-12-04T10:22:41.015Z,36.30
2022-12-04T10:25:27.072Z,36.97
2022-12-04T10:27:56.829Z,34.38
2022-12-04T10:30:24.261Z,35.15
2022-12-04T10:32:57.616Z,32.60
2022-12-04T10:35:27.355Z,32.78
2022-12-04T10:37:57.626Z,36.20
2022-12-04T10:40:33.851Z,30.42
2022-12-04T10:43:04.191Z,32.38
2022-12-04T10:45:31.434Z,29.77
2022-12-04T10:47:58.884Z,32.63
2022-12-04T10:50:26.756Z,33.65
2022-12-04T10:52:54.024Z,33.40
2022-12-04T10:55:32.824Z,32.90
2022-12-04T10:58:00.054Z,33.10
2022-12-04T11:00:31.967Z,32.10
2022-12-04T11:03:03.456Z,30.85
2022-12-04T11:05:33.853Z,28.38
2022-12-04T11:08:03.060Z,29.27
2022-12-04T11:10:43.800Z,29.45
2022-12-04T11:13:13.774Z,29.00
2022-12-04T11:15:51.181Z,29.38
2022-12-04T11:18:20.219Z,27.92
2022-12-04T11:21:06.673Z,33.25
2022-12-04T11:23:44.473Z,28.90
2022-12-04T11:26:12.125Z,29.85
2022-12-04T11:28:42.088Z,29.65
2022-12-04T11:31:11.051Z,25.60
2022-12-04T11:33:40.848Z,29.70
2022-12-04T11:38:36.279Z,23.10
2022-12-04T11:41:04.615Z,23.92
2022-12-04T11:43:33.888Z,27.23
2022-12-04T11:46:06.610Z,26.17
2022-12-04T11:48:42.808Z,23.10
2022-12-04T11:53:40.270Z,23.13
2022-12-04T11:56:26.339Z,25.50
2022-12-04T11:58:56.818Z,21.35
2022-12-04T12:01:42.950Z,22.98
2022-12-04T12:04:34.119Z,23.58
2022-12-04T12:07:04.407Z,23.85
2022-12-04T12:09:52.110Z,22.98
2022-12-04T12:12:23.167Z,24.27
2022-12-04T12:15:00.278Z,24.98
2022-12-04T12:17:30.743Z,17.45
2022-12-04T12:20:01.319Z,22.30
2022-12-04T12:22:44.096Z,24.70
2022-12-04T12:27:44.488Z,20.10
2022-12-04T12:30:21.586Z,21.55
2022-12-04T12:32:53.821Z,22.73
2022-12-04T12:35:23.475Z,21.95
2022-12-04T12:40:27.767Z,22.75
2022-12-04T12:42:58.753Z,19.58
2022-12-04T12:45:45.906Z,23.60
2022-12-04T12:48:21.003Z,23.00
2022-12-04T12:51:14.787Z,20.33
2022-12-04T12:53:44.024Z,23.27
2022-12-04T12:56:13.282Z,21.95
2022-12-04T12:58:50.614Z,25.45
2022-12-04T13:01:21.745Z,22.23
2022-12-04T13:03:57.813Z,21.27
2022-12-04T13:06:29.568Z,20.38
2022-12-04T13:08:56.954Z,21.80
2022-12-04T13:11:26.434Z,20.67
2022-12-04T13:13:57.011Z,23.23
2022-12-04T13:16:26.425Z,19.55
2022-12-04T13:19:14.104Z,20.17
2022-12-04T13:21:44.196Z,22.48
2022-12-04T13:24:30.208Z,22.58
2022-12-04T13:27:02.902Z,23.23
2022-12-04T13:29:40.130Z,24.50
2022-12-04T13:32:27.526Z,21.70
2022-12-04T13:34:57.999Z,23.35
2022-12-04T13:37:34.471Z,24.17
2022-12-04T13:40:40.718Z,23.75
2022-12-04T13:43:31.065Z,23.27
2022-12-04T13:46:00.183Z,23.38
2022-12-04T13:48:37.916Z,22.40
2022-12-04T13:51:06.933Z,19.38
2022-12-04T13:53:41.192Z,23.05
2022-12-04T13:56:23.894Z,21.25
2022-12-04T13:58:59.377Z,20.58
2022-12-04T14:01:32.169Z,24.75
2022-12-04T14:04:00.289Z,24.27
2022-12-04T14:06:37.314Z,24.45
2022-12-04T14:09:08.372Z,23.98
2022-12-04T14:11:55.985Z,23.83
2022-12-04T14:14:54.185Z,23.17
2022-12-04T14:17:28.157Z,24.33
2022-12-04T14:20:05.873Z,26.52
2022-12-04T14:22:35.193Z,26.27
2022-12-04T14:25:22.065Z,25.65
2022-12-04T14:27:51.960Z,26.52
2022-12-04T14:30:48.868Z,25.67
2022-12-04T14:33:20.658Z,23.27
2022-12-04T14:36:10.717Z,30.13
2022-12-04T14:38:45.404Z,30.00
2022-12-04T14:41:12.906Z,31.77
2022-12-04T14:43:41.612Z,27.48
2022-12-04T14:46:28.704Z,29.05
2022-12-04T14:49:14.862Z,27.95
2022-12-04T14:52:08.130Z,25.88
2022-12-04T14:54:45.816Z,26.23
2022-12-04T14:57:16.850Z,25.92
2022-12-04T14:59:51.660Z,33.97
2022-12-04T15:02:23.462Z,30.38
2022-12-04T15:04:51.273Z,32.58
2022-12-04T15:07:25.900Z,29.73
2022-12-04T15:10:16.303Z,30.00
2022-12-04T15:12:48.980Z,29.58
2022-12-04T15:15:26.889Z,31.83
2022-12-04T15:18:01.105Z,34.97
2022-12-04T15:20:32.188Z,37.90
2022-12-04T15:23:02.879Z,33.53
2022-12-04T15:25:33.956Z,33.47
2022-12-04T15:28:08.584Z,29.30
2022-12-04T15:30:37.237Z,30.60
2022-12-04T15:33:04.938Z,34.88
2022-12-04T15:35:33.711Z,34.20
2022-12-04T15:38:01.408Z,36.30
2022-12-04T15:40:29.739Z,30.15
2022-12-04T15:43:07.071Z,39.88
2022-12-04T15:45:34.777Z,34.05
2022-12-04T15:48:02.386Z,38.28
2022-12-04T15:50:31.181Z,35.45
2022-12-04T15:53:01.849Z,34.53
2022-12-04T15:55:30.865Z,36.17
2022-12-04T15:58:02.809Z,35.70
2022-12-04T16:00:36.349Z,37.58
2022-12-04T16:03:06.553Z,37.13
2022-12-04T16:05:38.670Z,36.10
2022-12-04T16:08:21.414Z,33.08
2022-12-04T16:10:56.879Z,31.80
2022-12-04T16:13:28.277Z,34.97
2022-12-04T16:15:58.659Z,33.40
2022-12-04T16:18:26.161Z,35.72
2022-12-04T16:20:54.010Z,35.58
2022-12-04T16:23:23.500Z,30.75
2022-12-04T16:25:53.576Z,36.85
2022-12-04T16:28:21.438Z,33.63
2022-12-04T16:30:50.838Z,31.23
2022-12-04T16:33:18.300Z,32.00
2022-12-04T16:35:46.199Z,35.83
2022-12-04T16:38:17.003Z,33.88
2022-12-04T16:40:45.492Z,33.17
2022-12-04T16:43:14.221Z,31.75
2022-12-04T16:45:45.437Z,33.63
2022-12-04T16:48:12.780Z,35.92
2022-12-04T16:50:40.021Z,36.50
2022-12-04T16:53:07.320Z,34.38
2022-12-04T16:55:36.524Z,34.03
2022-12-04T16:58:04.219Z,33.28
2022-12-04T17:00:31.608Z,36.22
2022-12-04T17:02:59.272Z,36.25
2022-12-04T17:05:28.490Z,34.90
2022-12-04T17:07:56.308Z,33.90
2022-12-04T17:10:24.601Z,36.13
2022-12-04T17:12:55.260Z,34.00
2022-12-04T17:15:22.570Z,36.67
2022-12-04T17:17:49.847Z,35.47
2022-12-04T17:20:18.026Z,38.80
2022-12-04T17:22:47.239Z,32.00
2022-12-04T17:25:15.445Z,32.00
2022-12-04T17:27:42.685Z,30.65
2022-12-04T17:30:10.894Z,30.25
2022-12-04T17:32:38.425Z,33.33
2022-12-04T17:35:06.777Z,31.67
2022-12-04T17:37:34.727Z,31.88
2022-12-04T17:40:02.261Z,27.50
2022-12-04T17:42:29.625Z,30.45
2022-12-04T17:44:57.220Z,30.95
2022-12-04T17:47:24.799Z,33.28
2022-12-04T17:49:52.122Z,30.90
2022-12-04T17:52:22.359Z,34.03
2022-12-04T17:54:51.274Z,31.13
2022-12-04T17:57:18.969Z,29.08
2022-12-04T17:59:46.445Z,31.98
2022-12-04T18:02:13.998Z,25.00
2022-12-04T18:04:42.777Z,30.88
2022-12-04T18:07:10.160Z,25.83
2022-12-04T18:09:37.586Z,30.90
2022-12-04T18:12:04.945Z,30.67
2022-12-04T18:14:33.427Z,29.65
2022-12-04T18:17:01.348Z,24.83
2022-12-04T18:19:29.440Z,29.85
2022-12-04T18:21:59.005Z,27.58
2022-12-04T18:24:26.935Z,30.40
2022-12-04T18:26:54.632Z,29.52
2022-12-04T18:29:24.806Z,23.52
2022-12-04T18:31:52.650Z,33.15
2022-12-04T18:34:20.464Z,25.42
2022-12-04T18:36:48.171Z,30.25
2022-12-04T18:39:16.973Z,32.47
2022-12-04T18:41:44.516Z,31.65
2022-12-04T18:44:12.069Z,35.72
2022-12-04T18:46:39.603Z,34.58
2022-12-04T18:49:09.227Z,31.27
2022-12-04T18:51:39.402Z,31.42
2022-12-04T18:54:08.524Z,34.13
2022-12-04T18:56:36.366Z,36.95
2022-12-04T18:59:05.814Z,38.50
2022-12-04T19:01:33.533Z,32.47
2022-12-04T19:04:02.193Z,35.17
2022-12-04T19:06:33.809Z,36.40
2022-12-04T19:09:02.033Z,38.75
2022-12-04T19:11:29.296Z,39.60
2022-12-04T19:13:56.538Z,33.72
2022-12-04T19:16:24.174Z,37.60
2022-12-04T19:18:51.478Z,38.65
2022-12-04T19:21:19.128Z,35.13
2022-12-04T19:23:58.998Z,35.38
2022-12-04T19:26:27.055Z,39.75
2022-12-04T19:28:55.249Z,37.47
2022-12-04T19:31:24.627Z,38.90
2022-12-04T19:33:52.613Z,37.65
2022-12-04T19:36:20.020Z,37.35
2022-12-04T19:38:47.557Z,39.80
2022-12-04T19:41:16.692Z,38.53
2022-12-04T19:43:45.628Z,38.30
2022-12-04T19:46:14.068Z,40.45
2022-12-04T19:48:41.866Z,41.25
2022-12-04T19:51:10.482Z,39.55
2022-12-04T19:53:41.181Z,41.28
2022-12-04T19:56:10.654Z,45.17
2022-12-04T19:58:37.927Z,35.40
2022-12-04T20:01:06.723Z,38.13
2022-12-04T20:03:34.796Z,41.17
2022-12-04T20:06:05.267Z,42.90
2022-12-04T20:08:32.636Z,41.42
2022-12-04T20:11:04.028Z,48.45
2022-12-04T20:13:31.334Z,43.20
2022-12-04T20:16:02.461Z,43.53
2022-12-04T20:18:32.526Z,43.47
2022-12-04T20:21:00.577Z,40.15
2022-12-04T20:23:28.695Z,41.80
2022-12-04T20:25:56.090Z,36.15
2022-12-04T20:28:23.407Z,40.75
2022-12-04T20:30:50.966Z,39.17
2022-12-04T20:33:21.239Z,45.00
2022-12-04T20:35:50.096Z,36.30
2022-12-04T20:38:20.336Z,37.50
2022-12-04T20:40:48.224Z,39.58
2022-12-04T20:43:15.548Z,36.65
2022-12-04T20:45:43.071Z,37.42
2022-12-04T20:48:10.888Z,36.97
2022-12-04T20:50:40.085Z,39.15
2022-12-04T20:53:07.463Z,37.30
2022-12-04T20:55:34.867Z,38.80
2022-12-04T20:58:02.253Z,38.33
2022-12-04T21:00:29.977Z,36.83
2022-12-04T21:02:57.396Z,36.60
2022-12-04T21:05:24.865Z,40.50
2022-12-04T21:07:52.270Z,41.53
2022-12-04T21:10:19.579Z,37.90
2022-12-04T21:13:05.893Z,37.25
2022-12-04T21:15:51.931Z,42.08
2022-12-04T21:18:19.194Z,36.65
2022-12-04T21:20:46.535Z,40.30
2022-12-04T21:23:13.819Z,37.70
2022-12-04T21:25:41.037Z,41.97
2022-12-04T21:28:08.310Z,38.55
2022-12-04T21:30:38.421Z,39.33
2022-12-04T21:33:05.734Z,42.45
2022-12-04T21:35:32.939Z,41.13
2022-12-04T21:38:00.310Z,42.20
2022-12-04T21:40:27.564Z,41.03
2022-12-04T21:42:54.788Z,36.67
2022-12-04T21:45:22.044Z,37.85
2022-12-04T21:47:49.420Z,39.88
2022-12-04T21:50:16.704Z,38.65
2022-12-04T21:52:44.031Z,42.47
2022-12-04T21:55:11.268Z,43.20
2022-12-04T21:57:38.500Z,41.25
2022-12-04T22:00:06.140Z,40.47
2022-12-04T22:02:34.868Z,37.72
2022-12-04T22:05:02.189Z,38.85
2022-12-04T22:07:29.505Z,41.22
2022-12-04T22:09:57.184Z,39.08
2022-12-04T22:12:48.614Z,43.22
2022-12-04T22:15:12.090Z,37.53
2022-12-04T22:17:39.390Z,46.33
2022-12-04T22:20:06.990Z,38.03
2022-12-04T22:22:37.313Z,37.88
2022-12-04T22:25:04.659Z,36.55
2022-12-04T22:27:32.078Z,39.85
2022-12-04T22:29:59.590Z,36.20
2022-12-04T22:32:26.822Z,38.85
2022-12-04T22:34:54.059Z,37.50
2022-12-04T22:37:21.271Z,42.38
2022-12-04T22:39:48.601Z,34.95
2022-12-04T22:42:15.976Z,41.88
2022-12-04T22:44:43.302Z,36.65
2022-12-04T22:47:10.600Z,36.70
2022-12-04T22:49:37.970Z,34.92
2022-12-04T22:52:05.468Z,36.90
2022-12-04T22:54:32.810Z,38.55
2022-12-04T22:57:00.040Z,37.00
2022-12-04T22:59:27.341Z,34.85
2022-12-04T23:01:54.650Z,36.95
2022-12-04T23:04:21.920Z,34.45
2022-12-04T23:06:49.248Z,37.30
2022-12-04T23:09:17.455Z,37.22
2022-12-04T23:11:45.086Z,36.60
2022-12-04T23:14:14.332Z,37.47
2022-12-04T23:16:41.793Z,35.28
2022-12-04T23:19:09.994Z,32.90
2022-12-04T23:21:37.442Z,37.53
2022-12-04T23:24:04.916Z,36.10
2022-12-04T23:26:33.585Z,38.67
2022-12-04T23:29:01.708Z,34.17
2022-12-04T23:31:29.774Z,36.47
2022-12-04T23:33:57.074Z,33.85
2022-12-04T23:36:24.674Z,34.28
2022-12-04T23:38:52.239Z,35.30
2022-12-04T23:41:21.400Z,34.40
2022-12-04T23:43:49.404Z,33.15
2022-12-04T23:46:18.254Z,33.00
2022-12-04T23:48:46.158Z,31.52
2022-12-04T23:51:15.058Z,35.35
2022-12-04T23:53:42.716Z,31.63
2022-12-04T23:56:17.631Z,31.45
2022-12-04T23:58:45.826Z,23.35
